sensor_id;sensor_type;location;lat;lon;timestamp;temperature;humidity
11925;DHT22;6022;48.768;18.608;2023-06-01T00:00:57;15.60;99.90
11925;DHT22;6022;48.768;18.608;2023-06-01T00:03:30;15.50;99.90
11925;DHT22;6022;48.768;18.608;2023-06-01T00:06:00;15.40;99.90
11925;DHT22;6022;48.768;18.608;2023-06-01T00:08:29;15.40;99.90
11925;DHT22;6022;48.768;18.608;2023-06-01T00:10:59;15.40;99.90
11925;DHT22;6022;48.768;18.608;2023-06-01T00:13:29;15.40;99.90
11925;DHT22;6022;48.768;18.608;2023-06-01T00:15:58;15.40;99.90
11925;DHT22;6022;48.768;18.608;2023-06-01T00:18:28;15.10;99.90
11925;DHT22;6022;48.768;18.608;2023-06-01T00:21:01;15.50;99.90
11925;DHT22;6022;48.768;18.608;2023-06-01T00:23:33;15.20;99.90
11925;DHT22;6022;48.768;18.608;2023-06-01T00:26:02;15.20;99.90
11925;DHT22;6022;48.768;18.608;2023-06-01T00:28:34;15.20;99.90
11925;DHT22;6022;48.768;18.608;2023-06-01T00:31:07;15.20;99.90
11925;DHT22;6022;48.768;18.608;2023-06-01T00:33:38;15.10;99.90
11925;DHT22;6022;48.768;18.608;2023-06-01T00:36:32;14.70;99.90
11925;DHT22;6022;48.768;18.608;2023-06-01T00:39:20;15.00;99.90
11925;DHT22;6022;48.768;18.608;2023-06-01T00:41:52;14.80;99.90
11925;DHT22;6022;48.768;18.608;2023-06-01T00:44:25;15.10;99.90
11925;DHT22;6022;48.768;18.608;2023-06-01T00:46:55;14.90;99.90
11925;DHT22;6022;48.768;18.608;2023-06-01T00:49:26;14.60;99.90
11925;DHT22;6022;48.768;18.608;2023-06-01T00:51:56;14.80;99.90
11925;DHT22;6022;48.768;18.608;2023-06-01T00:54:27;14.60;99.90
11925;DHT22;6022;48.768;18.608;2023-06-01T00:56:56;14.80;99.90
11925;DHT22;6022;48.768;18.608;2023-06-01T00:59:27;14.90;99.90
11925;DHT22;6022;48.768;18.608;2023-06-01T01:01:56;14.60;99.90
11925;DHT22;6022;48.768;18.608;2023-06-01T01:04:26;14.60;99.90
11925;DHT22;6022;48.768;18.608;2023-06-01T01:07:19;14.70;99.90
11925;DHT22;6022;48.768;18.608;2023-06-01T01:10:03;14.70;99.90
11925;DHT22;6022;48.768;18.608;2023-06-01T01:12:57;14.60;99.90
11925;DHT22;6022;48.768;18.608;2023-06-01T01:18:25;14.90;99.90
11925;DHT22;6022;48.768;18.608;2023-06-01T01:21:03;14.50;99.90
11925;DHT22;6022;48.768;18.608;2023-06-01T01:24:23;14.50;99.90
11925;DHT22;6022;48.768;18.608;2023-06-01T01:27:19;14.50;99.90
11925;DHT22;6022;48.768;18.608;2023-06-01T01:29:54;14.70;99.90
11925;DHT22;6022;48.768;18.608;2023-06-01T01:32:26;14.60;99.90
11925;DHT22;6022;48.768;18.608;2023-06-01T01:34:58;14.60;99.90
11925;DHT22;6022;48.768;18.608;2023-06-01T01:37:28;14.60;99.90
11925;DHT22;6022;48.768;18.608;2023-06-01T01:40:02;14.70;99.90
11925;DHT22;6022;48.768;18.608;2023-06-01T01:42:32;14.50;99.90
11925;DHT22;6022;48.768;18.608;2023-06-01T01:45:06;14.50;99.90
11925;DHT22;6022;48.768;18.608;2023-06-01T01:47:47;14.30;99.90
11925;DHT22;6022;48.768;18.608;2023-06-01T01:50:26;14.40;99.90
11925;DHT22;6022;48.768;18.608;2023-06-01T01:52:59;14.30;99.90
11925;DHT22;6022;48.768;18.608;2023-06-01T01:55:30;14.30;99.90
11925;DHT22;6022;48.768;18.608;2023-06-01T01:58:03;14.40;99.90
11925;DHT22;6022;48.768;18.608;2023-06-01T02:00:35;14.50;99.90
11925;DHT22;6022;48.768;18.608;2023-06-01T02:03:16;14.40;99.90
11925;DHT22;6022;48.768;18.608;2023-06-01T02:05:49;14.60;99.90
11925;DHT22;6022;48.768;18.608;2023-06-01T02:08:21;14.60;99.90
11925;DHT22;6022;48.768;18.608;2023-06-01T02:10:51;14.50;99.90
11925;DHT22;6022;48.768;18.608;2023-06-01T02:13:21;14.60;99.90
11925;DHT22;6022;48.768;18.608;2023-06-01T02:15:51;14.50;99.90
11925;DHT22;6022;48.768;18.608;2023-06-01T02:18:20;14.50;99.90
11925;DHT22;6022;48.768;18.608;2023-06-01T02:20:50;14.50;99.90
11925;DHT22;6022;48.768;18.608;2023-06-01T02:23:22;14.40;99.90
11925;DHT22;6022;48.768;18.608;2023-06-01T02:25:51;14.40;99.90
11925;DHT22;6022;48.768;18.608;2023-06-01T02:28:24;14.00;99.90
11925;DHT22;6022;48.768;18.608;2023-06-01T02:30:53;13.90;99.90
11925;DHT22;6022;48.768;18.608;2023-06-01T02:33:24;14.10;99.90
11925;DHT22;6022;48.768;18.608;2023-06-01T02:35:54;14.30;99.90
11925;DHT22;6022;48.768;18.608;2023-06-01T02:38:23;14.20;99.90
11925;DHT22;6022;48.768;18.608;2023-06-01T02:40:52;14.30;99.90
11925;DHT22;6022;48.768;18.608;2023-06-01T02:43:21;14.00;99.90
11925;DHT22;6022;48.768;18.608;2023-06-01T02:45:53;14.20;99.90
11925;DHT22;6022;48.768;18.608;2023-06-01T02:48:24;13.80;99.90
11925;DHT22;6022;48.768;18.608;2023-06-01T02:50:55;14.30;99.90
11925;DHT22;6022;48.768;18.608;2023-06-01T02:53:24;14.20;99.90
11925;DHT22;6022;48.768;18.608;2023-06-01T02:55:55;14.10;99.90
11925;DHT22;6022;48.768;18.608;2023-06-01T02:58:26;14.00;99.90
11925;DHT22;6022;48.768;18.608;2023-06-01T03:00:56;14.30;99.90
11925;DHT22;6022;48.768;18.608;2023-06-01T03:03:26;13.90;99.90
11925;DHT22;6022;48.768;18.608;2023-06-01T03:05:56;14.00;99.90
11925;DHT22;6022;48.768;18.608;2023-06-01T03:08:27;14.10;99.90
11925;DHT22;6022;48.768;18.608;2023-06-01T03:10:59;14.10;99.90
11925;DHT22;6022;48.768;18.608;2023-06-01T03:13:32;14.20;99.90
11925;DHT22;6022;48.768;18.608;2023-06-01T03:16:02;14.20;99.90
11925;DHT22;6022;48.768;18.608;2023-06-01T03:18:32;14.30;99.90
11925;DHT22;6022;48.768;18.608;2023-06-01T03:21:05;14.00;99.90
11925;DHT22;6022;48.768;18.608;2023-06-01T03:23:34;14.20;99.90
11925;DHT22;6022;48.768;18.608;2023-06-01T03:26:04;14.10;99.90
11925;DHT22;6022;48.768;18.608;2023-06-01T03:40:57;14.50;99.90
11925;DHT22;6022;48.768;18.608;2023-06-01T03:43:26;15.10;99.90
11925;DHT22;6022;48.768;18.608;2023-06-01T03:45:56;15.40;99.90
11925;DHT22;6022;48.768;18.608;2023-06-01T03:48:25;15.20;99.90
11925;DHT22;6022;48.768;18.608;2023-06-01T03:50:53;15.40;99.90
11925;DHT22;6022;48.768;18.608;2023-06-01T03:53:21;15.40;99.90
11925;DHT22;6022;48.768;18.608;2023-06-01T03:55:49;15.30;99.90
11925;DHT22;6022;48.768;18.608;2023-06-01T03:58:35;15.10;99.90
11925;DHT22;6022;48.768;18.608;2023-06-01T04:01:05;14.70;99.90
11925;DHT22;6022;48.768;18.608;2023-06-01T04:03:36;14.90;99.90
11925;DHT22;6022;48.768;18.608;2023-06-01T04:06:05;15.20;99.90
11925;DHT22;6022;48.768;18.608;2023-06-01T04:08:39;15.50;99.90
11925;DHT22;6022;48.768;18.608;2023-06-01T04:11:17;15.60;99.90
11925;DHT22;6022;48.768;18.608;2023-06-01T04:13:48;15.50;99.90
11925;DHT22;6022;48.768;18.608;2023-06-01T04:16:16;15.30;99.90
11925;DHT22;6022;48.768;18.608;2023-06-01T04:18:46;15.40;99.90
11925;DHT22;6022;48.768;18.608;2023-06-01T04:21:16;15.10;99.90
11925;DHT22;6022;48.768;18.608;2023-06-01T04:23:45;15.00;99.90
11925;DHT22;6022;48.768;18.608;2023-06-01T04:26:24;15.60;99.90
11925;DHT22;6022;48.768;18.608;2023-06-01T04:29:43;15.50;99.90
11925;DHT22;6022;48.768;18.608;2023-06-01T04:32:20;15.30;99.90
11925;DHT22;6022;48.768;18.608;2023-06-01T04:34:56;15.80;99.90
11925;DHT22;6022;48.768;18.608;2023-06-01T04:37:38;16.20;99.90
11925;DHT22;6022;48.768;18.608;2023-06-01T04:40:21;17.80;99.90
11925;DHT22;6022;48.768;18.608;2023-06-01T04:42:52;19.40;99.90
11925;DHT22;6022;48.768;18.608;2023-06-01T04:45:33;19.40;99.90
11925;DHT22;6022;48.768;18.608;2023-06-01T04:48:13;20.90;99.90
11925;DHT22;6022;48.768;18.608;2023-06-01T04:50:53;21.00;99.90
11925;DHT22;6022;48.768;18.608;2023-06-01T04:53:44;21.90;99.90
11925;DHT22;6022;48.768;18.608;2023-06-01T04:56:21;22.70;99.90
11925;DHT22;6022;48.768;18.608;2023-06-01T04:59:08;23.10;99.90
11925;DHT22;6022;48.768;18.608;2023-06-01T05:01:45;23.40;99.90
11925;DHT22;6022;48.768;18.608;2023-06-01T05:04:28;23.30;99.40
11925;DHT22;6022;48.768;18.608;2023-06-01T05:07:08;24.60;95.60
11925;DHT22;6022;48.768;18.608;2023-06-01T05:09:42;24.30;94.60
11925;DHT22;6022;48.768;18.608;2023-06-01T05:12:15;24.20;95.20
11925;DHT22;6022;48.768;18.608;2023-06-01T05:14:48;25.00;94.10
11925;DHT22;6022;48.768;18.608;2023-06-01T05:17:23;25.70;91.90
11925;DHT22;6022;48.768;18.608;2023-06-01T05:19:52;26.40;90.90
11925;DHT22;6022;48.768;18.608;2023-06-01T05:22:25;26.40;90.90
11925;DHT22;6022;48.768;18.608;2023-06-01T05:24:58;26.60;86.30
11925;DHT22;6022;48.768;18.608;2023-06-01T05:27:29;26.90;84.20
11925;DHT22;6022;48.768;18.608;2023-06-01T05:30:03;27.00;84.00
11925;DHT22;6022;48.768;18.608;2023-06-01T05:32:36;27.00;82.00
11925;DHT22;6022;48.768;18.608;2023-06-01T05:35:11;26.60;80.80
11925;DHT22;6022;48.768;18.608;2023-06-01T05:37:42;26.30;80.40
11925;DHT22;6022;48.768;18.608;2023-06-01T05:40:13;26.60;80.30
11925;DHT22;6022;48.768;18.608;2023-06-01T05:42:44;27.60;78.30
11925;DHT22;6022;48.768;18.608;2023-06-01T05:45:13;27.60;78.20
11925;DHT22;6022;48.768;18.608;2023-06-01T05:47:43;27.60;76.40
11925;DHT22;6022;48.768;18.608;2023-06-01T05:50:19;28.50;75.00
11925;DHT22;6022;48.768;18.608;2023-06-01T06:04:06;28.50;71.80
11925;DHT22;6022;48.768;18.608;2023-06-01T06:06:36;29.00;66.90
11925;DHT22;6022;48.768;18.608;2023-06-01T06:09:12;29.30;65.10
11925;DHT22;6022;48.768;18.608;2023-06-01T06:11:41;29.70;65.60
11925;DHT22;6022;48.768;18.608;2023-06-01T06:14:08;29.70;63.10
11925;DHT22;6022;48.768;18.608;2023-06-01T06:16:38;29.80;61.00
11925;DHT22;6022;48.768;18.608;2023-06-01T06:19:07;30.00;61.20
11925;DHT22;6022;48.768;18.608;2023-06-01T06:21:35;31.80;58.60
11925;DHT22;6022;48.768;18.608;2023-06-01T06:24:07;31.90;58.50
11925;DHT22;6022;48.768;18.608;2023-06-01T06:26:37;31.90;53.50
11925;DHT22;6022;48.768;18.608;2023-06-01T06:29:18;32.10;54.30
11925;DHT22;6022;48.768;18.608;2023-06-01T06:31:45;31.20;54.30
11925;DHT22;6022;48.768;18.608;2023-06-01T06:34:13;30.50;55.00
11925;DHT22;6022;48.768;18.608;2023-06-01T06:36:48;30.60;55.40
11925;DHT22;6022;48.768;18.608;2023-06-01T06:39:15;31.20;53.30
11925;DHT22;6022;48.768;18.608;2023-06-01T06:41:43;32.50;52.00
11925;DHT22;6022;48.768;18.608;2023-06-01T06:44:15;32.30;53.10
11925;DHT22;6022;48.768;18.608;2023-06-01T06:46:43;32.90;52.30
11925;DHT22;6022;48.768;18.608;2023-06-01T06:49:50;33.40;50.50
11925;DHT22;6022;48.768;18.608;2023-06-01T06:52:42;32.20;48.70
11925;DHT22;6022;48.768;18.608;2023-06-01T06:55:27;32.90;49.60
11925;DHT22;6022;48.768;18.608;2023-06-01T06:57:57;33.00;49.00
11925;DHT22;6022;48.768;18.608;2023-06-01T07:00:28;32.10;48.60
11925;DHT22;6022;48.768;18.608;2023-06-01T07:03:05;31.90;50.10
11925;DHT22;6022;48.768;18.608;2023-06-01T07:05:33;32.40;47.40
11925;DHT22;6022;48.768;18.608;2023-06-01T07:08:03;32.30;47.30
11925;DHT22;6022;48.768;18.608;2023-06-01T07:10:31;31.60;47.00
11925;DHT22;6022;48.768;18.608;2023-06-01T07:12:58;31.20;47.50
11925;DHT22;6022;48.768;18.608;2023-06-01T07:15:26;30.90;48.10
11925;DHT22;6022;48.768;18.608;2023-06-01T07:17:53;31.00;48.00
11925;DHT22;6022;48.768;18.608;2023-06-01T07:20:22;33.10;46.10
11925;DHT22;6022;48.768;18.608;2023-06-01T07:22:50;33.00;46.30
11925;DHT22;6022;48.768;18.608;2023-06-01T07:25:17;33.80;42.70
11925;DHT22;6022;48.768;18.608;2023-06-01T07:27:45;33.40;43.00
11925;DHT22;6022;48.768;18.608;2023-06-01T07:30:15;32.60;43.50
11925;DHT22;6022;48.768;18.608;2023-06-01T07:32:43;32.50;44.10
11925;DHT22;6022;48.768;18.608;2023-06-01T07:35:10;33.90;44.20
11925;DHT22;6022;48.768;18.608;2023-06-01T07:37:49;34.40;41.70
11925;DHT22;6022;48.768;18.608;2023-06-01T07:40:16;34.30;42.30
11925;DHT22;6022;48.768;18.608;2023-06-01T07:42:44;34.60;43.20
11925;DHT22;6022;48.768;18.608;2023-06-01T07:45:11;34.80;41.50
11925;DHT22;6022;48.768;18.608;2023-06-01T07:47:51;34.80;42.00
11925;DHT22;6022;48.768;18.608;2023-06-01T07:50:20;34.70;42.30
11925;DHT22;6022;48.768;18.608;2023-06-01T07:53:02;34.60;42.40
11925;DHT22;6022;48.768;18.608;2023-06-01T07:55:29;34.40;41.30
11925;DHT22;6022;48.768;18.608;2023-06-01T07:57:57;34.30;43.00
11925;DHT22;6022;48.768;18.608;2023-06-01T08:00:24;34.60;41.40
11925;DHT22;6022;48.768;18.608;2023-06-01T08:02:55;34.50;41.50
11925;DHT22;6022;48.768;18.608;2023-06-01T08:05:26;34.20;40.20
11925;DHT22;6022;48.768;18.608;2023-06-01T08:07:53;34.10;41.70
11925;DHT22;6022;48.768;18.608;2023-06-01T08:10:23;34.10;41.00
11925;DHT22;6022;48.768;18.608;2023-06-01T08:12:51;34.10;41.00
11925;DHT22;6022;48.768;18.608;2023-06-01T08:15:23;34.30;41.80
11925;DHT22;6022;48.768;18.608;2023-06-01T08:17:52;34.20;41.10
11925;DHT22;6022;48.768;18.608;2023-06-01T08:20:20;34.20;40.80
11925;DHT22;6022;48.768;18.608;2023-06-01T08:22:50;34.10;41.00
11925;DHT22;6022;48.768;18.608;2023-06-01T08:25:25;34.10;43.20
11925;DHT22;6022;48.768;18.608;2023-06-01T08:27:53;34.30;43.30
11925;DHT22;6022;48.768;18.608;2023-06-01T08:30:26;34.50;42.20
11925;DHT22;6022;48.768;18.608;2023-06-01T08:32:54;34.20;41.30
11925;DHT22;6022;48.768;18.608;2023-06-01T08:35:22;34.30;41.80
11925;DHT22;6022;48.768;18.608;2023-06-01T08:37:49;33.90;39.90
11925;DHT22;6022;48.768;18.608;2023-06-01T08:40:17;34.00;40.80
11925;DHT22;6022;48.768;18.608;2023-06-01T08:45:13;34.00;40.80
11925;DHT22;6022;48.768;18.608;2023-06-01T08:47:53;34.30;42.90
11925;DHT22;6022;48.768;18.608;2023-06-01T08:50:22;33.90;39.40
11925;DHT22;6022;48.768;18.608;2023-06-01T08:52:53;33.90;40.10
11925;DHT22;6022;48.768;18.608;2023-06-01T08:55:24;34.30;41.00
11925;DHT22;6022;48.768;18.608;2023-06-01T08:57:54;34.40;41.40
11925;DHT22;6022;48.768;18.608;2023-06-01T09:00:31;34.20;40.70
11925;DHT22;6022;48.768;18.608;2023-06-01T09:03:00;34.20;41.00
11925;DHT22;6022;48.768;18.608;2023-06-01T09:05:28;34.10;40.60
11925;DHT22;6022;48.768;18.608;2023-06-01T09:07:55;34.20;41.30
11925;DHT22;6022;48.768;18.608;2023-06-01T09:10:24;34.20;41.90
11925;DHT22;6022;48.768;18.608;2023-06-01T09:12:53;33.70;38.30
11925;DHT22;6022;48.768;18.608;2023-06-01T09:15:22;33.60;43.80
11925;DHT22;6022;48.768;18.608;2023-06-01T09:17:51;33.70;43.90
11925;DHT22;6022;48.768;18.608;2023-06-01T09:20:28;33.80;43.40
11925;DHT22;6022;48.768;18.608;2023-06-01T09:23:09;33.40;43.90
11925;DHT22;6022;48.768;18.608;2023-06-01T09:25:37;33.50;46.00
11925;DHT22;6022;48.768;18.608;2023-06-01T09:28:05;33.80;44.80
11925;DHT22;6022;48.768;18.608;2023-06-01T09:30:41;33.90;43.30
11925;DHT22;6022;48.768;18.608;2023-06-01T09:33:15;33.40;43.50
11925;DHT22;6022;48.768;18.608;2023-06-01T09:36:01;33.00;43.50
11925;DHT22;6022;48.768;18.608;2023-06-01T09:38:29;33.00;45.10
11925;DHT22;6022;48.768;18.608;2023-06-01T09:40:58;33.10;45.90
11925;DHT22;6022;48.768;18.608;2023-06-01T09:43:35;32.80;45.10
11925;DHT22;6022;48.768;18.608;2023-06-01T09:46:07;32.70;44.80
11925;DHT22;6022;48.768;18.608;2023-06-01T09:48:41;32.70;44.40
11925;DHT22;6022;48.768;18.608;2023-06-01T09:51:22;33.00;45.80
11925;DHT22;6022;48.768;18.608;2023-06-01T09:53:56;32.60;44.70
11925;DHT22;6022;48.768;18.608;2023-06-01T09:56:23;33.00;44.50
11925;DHT22;6022;48.768;18.608;2023-06-01T09:58:59;33.00;46.20
11925;DHT22;6022;48.768;18.608;2023-06-01T10:01:33;33.10;44.40
11925;DHT22;6022;48.768;18.608;2023-06-01T10:04:02;33.20;44.80
11925;DHT22;6022;48.768;18.608;2023-06-01T10:06:38;33.50;45.20
11925;DHT22;6022;48.768;18.608;2023-06-01T10:09:10;33.40;45.80
11925;DHT22;6022;48.768;18.608;2023-06-01T10:11:54;33.30;44.30
11925;DHT22;6022;48.768;18.608;2023-06-01T10:22:49;32.80;39.40
11925;DHT22;6022;48.768;18.608;2023-06-01T10:25:54;32.60;39.90
11925;DHT22;6022;48.768;18.608;2023-06-01T10:28:30;32.70;40.70
11925;DHT22;6022;48.768;18.608;2023-06-01T10:34:04;33.10;41.70
11925;DHT22;6022;48.768;18.608;2023-06-01T10:39:48;32.90;41.90
11925;DHT22;6022;48.768;18.608;2023-06-01T10:44:48;32.80;40.10
11925;DHT22;6022;48.768;18.608;2023-06-01T11:57:05;32.20;39.60
11925;DHT22;6022;48.768;18.608;2023-06-01T11:59:47;31.90;35.40
11925;DHT22;6022;48.768;18.608;2023-06-01T12:02:25;32.00;36.10
11925;DHT22;6022;48.768;18.608;2023-06-01T12:07:48;31.70;34.50
11925;DHT22;6022;48.768;18.608;2023-06-01T12:10:21;31.60;35.20
11925;DHT22;6022;48.768;18.608;2023-06-01T12:12:49;31.50;37.50
11925;DHT22;6022;48.768;18.608;2023-06-01T12:15:18;31.60;37.40
11925;DHT22;6022;48.768;18.608;2023-06-01T12:17:56;31.60;35.70
11925;DHT22;6022;48.768;18.608;2023-06-01T12:20:29;31.40;34.10
11925;DHT22;6022;48.768;18.608;2023-06-01T12:22:58;31.40;34.60
11925;DHT22;6022;48.768;18.608;2023-06-01T12:25:28;31.50;37.70
11925;DHT22;6022;48.768;18.608;2023-06-01T12:28:06;31.40;35.10
11925;DHT22;6022;48.768;18.608;2023-06-01T12:30:37;31.40;35.60
11925;DHT22;6022;48.768;18.608;2023-06-01T12:33:07;31.00;35.50
11925;DHT22;6022;48.768;18.608;2023-06-01T12:36:03;30.80;36.00
11925;DHT22;6022;48.768;18.608;2023-06-01T12:38:52;30.90;37.00
11925;DHT22;6022;48.768;18.608;2023-06-01T12:41:22;30.70;37.50
11925;DHT22;6022;48.768;18.608;2023-06-01T12:43:51;30.60;39.00
11925;DHT22;6022;48.768;18.608;2023-06-01T12:46:23;30.10;38.00
11925;DHT22;6022;48.768;18.608;2023-06-01T12:48:54;30.00;38.30
11925;DHT22;6022;48.768;18.608;2023-06-01T12:51:41;29.70;39.40
11925;DHT22;6022;48.768;18.608;2023-06-01T12:54:09;29.70;42.60
11925;DHT22;6022;48.768;18.608;2023-06-01T12:56:36;29.60;41.50
11925;DHT22;6022;48.768;18.608;2023-06-01T12:59:04;29.50;41.10
11925;DHT22;6022;48.768;18.608;2023-06-01T13:01:38;29.40;39.50
11925;DHT22;6022;48.768;18.608;2023-06-01T13:04:15;29.50;41.90
11925;DHT22;6022;48.768;18.608;2023-06-01T13:06:45;29.30;40.60
11925;DHT22;6022;48.768;18.608;2023-06-01T13:09:12;29.20;39.60
11925;DHT22;6022;48.768;18.608;2023-06-01T13:11:41;29.30;39.90
11925;DHT22;6022;48.768;18.608;2023-06-01T13:14:10;29.30;39.60
11925;DHT22;6022;48.768;18.608;2023-06-01T13:16:40;29.10;39.10
11925;DHT22;6022;48.768;18.608;2023-06-01T13:19:10;28.90;38.50
11925;DHT22;6022;48.768;18.608;2023-06-01T13:21:45;28.70;38.90
11925;DHT22;6022;48.768;18.608;2023-06-01T13:24:15;28.50;38.50
11925;DHT22;6022;48.768;18.608;2023-06-01T13:26:47;28.40;39.80
11925;DHT22;6022;48.768;18.608;2023-06-01T13:29:17;28.70;42.00
11925;DHT22;6022;48.768;18.608;2023-06-01T13:31:50;28.40;41.90
11925;DHT22;6022;48.768;18.608;2023-06-01T13:34:28;28.40;43.20
11925;DHT22;6022;48.768;18.608;2023-06-01T13:36:55;28.70;43.60
11925;DHT22;6022;48.768;18.608;2023-06-01T13:39:24;28.50;44.10
11925;DHT22;6022;48.768;18.608;2023-06-01T13:41:52;28.30;40.40
11925;DHT22;6022;48.768;18.608;2023-06-01T13:44:24;28.50;43.30
11925;DHT22;6022;48.768;18.608;2023-06-01T13:46:52;28.60;42.40
11925;DHT22;6022;48.768;18.608;2023-06-01T13:49:26;28.30;41.20
11925;DHT22;6022;48.768;18.608;2023-06-01T13:52:00;28.30;41.90
11925;DHT22;6022;48.768;18.608;2023-06-01T13:54:27;28.20;43.30
11925;DHT22;6022;48.768;18.608;2023-06-01T13:57:10;28.40;41.10
11925;DHT22;6022;48.768;18.608;2023-06-01T13:59:43;28.20;41.40
11925;DHT22;6022;48.768;18.608;2023-06-01T14:02:12;28.00;40.20
11925;DHT22;6022;48.768;18.608;2023-06-01T14:04:39;27.90;41.10
11925;DHT22;6022;48.768;18.608;2023-06-01T14:07:10;27.80;41.60
11925;DHT22;6022;48.768;18.608;2023-06-01T14:09:46;27.50;42.20
11925;DHT22;6022;48.768;18.608;2023-06-01T14:12:14;27.70;43.30
11925;DHT22;6022;48.768;18.608;2023-06-01T14:14:50;27.60;43.70
11925;DHT22;6022;48.768;18.608;2023-06-01T14:17:20;27.50;43.90
11925;DHT22;6022;48.768;18.608;2023-06-01T14:19:49;27.50;43.20
11925;DHT22;6022;48.768;18.608;2023-06-01T14:22:21;27.50;43.90
11925;DHT22;6022;48.768;18.608;2023-06-01T14:24:49;27.40;45.60
11925;DHT22;6022;48.768;18.608;2023-06-01T14:27:16;27.50;46.00
11925;DHT22;6022;48.768;18.608;2023-06-01T14:29:47;27.40;44.90
11925;DHT22;6022;48.768;18.608;2023-06-01T14:32:15;28.00;45.80
11925;DHT22;6022;48.768;18.608;2023-06-01T14:34:42;27.50;45.10
11925;DHT22;6022;48.768;18.608;2023-06-01T14:37:09;27.40;45.00
11925;DHT22;6022;48.768;18.608;2023-06-01T14:39:39;27.30;44.80
11925;DHT22;6022;48.768;18.608;2023-06-01T14:42:08;27.30;45.50
11925;DHT22;6022;48.768;18.608;2023-06-01T14:44:41;27.30;44.20
11925;DHT22;6022;48.768;18.608;2023-06-01T14:47:23;27.20;44.70
11925;DHT22;6022;48.768;18.608;2023-06-01T14:50:10;27.10;45.40
11925;DHT22;6022;48.768;18.608;2023-06-01T14:52:43;27.20;45.50
11925;DHT22;6022;48.768;18.608;2023-06-01T14:55:12;27.10;46.20
11925;DHT22;6022;48.768;18.608;2023-06-01T14:57:44;26.90;46.10
11925;DHT22;6022;48.768;18.608;2023-06-01T15:00:12;26.90;46.80
11925;DHT22;6022;48.768;18.608;2023-06-01T15:02:39;26.90;47.80
11925;DHT22;6022;48.768;18.608;2023-06-01T15:05:07;26.80;46.40
11925;DHT22;6022;48.768;18.608;2023-06-01T15:07:36;26.90;46.50
11925;DHT22;6022;48.768;18.608;2023-06-01T15:10:06;26.60;45.10
11925;DHT22;6022;48.768;18.608;2023-06-01T15:12:37;26.70;45.20
11925;DHT22;6022;48.768;18.608;2023-06-01T15:15:05;26.60;45.70
11925;DHT22;6022;48.768;18.608;2023-06-01T15:17:32;26.50;45.60
11925;DHT22;6022;48.768;18.608;2023-06-01T15:20:00;26.60;45.60
11925;DHT22;6022;48.768;18.608;2023-06-01T15:22:27;26.50;46.70
11925;DHT22;6022;48.768;18.608;2023-06-01T15:24:57;26.20;47.40
11925;DHT22;6022;48.768;18.608;2023-06-01T15:27:24;26.50;47.70
11925;DHT22;6022;48.768;18.608;2023-06-01T15:29:52;26.40;47.90
11925;DHT22;6022;48.768;18.608;2023-06-01T15:32:19;26.40;47.00
11925;DHT22;6022;48.768;18.608;2023-06-01T15:34:47;26.30;47.60
11925;DHT22;6022;48.768;18.608;2023-06-01T15:37:14;26.30;46.80
11925;DHT22;6022;48.768;18.608;2023-06-01T15:39:41;25.90;48.00
11925;DHT22;6022;48.768;18.608;2023-06-01T15:42:10;26.20;48.90
11925;DHT22;6022;48.768;18.608;2023-06-01T15:44:42;26.30;47.00
11925;DHT22;6022;48.768;18.608;2023-06-01T15:47:11;26.00;47.20
11925;DHT22;6022;48.768;18.608;2023-06-01T15:49:46;26.00;47.50
11925;DHT22;6022;48.768;18.608;2023-06-01T15:52:22;26.10;47.60
11925;DHT22;6022;48.768;18.608;2023-06-01T15:54:54;26.00;48.20
11925;DHT22;6022;48.768;18.608;2023-06-01T15:57:23;26.20;51.10
11925;DHT22;6022;48.768;18.608;2023-06-01T15:59:58;26.00;48.90
11925;DHT22;6022;48.768;18.608;2023-06-01T16:02:26;26.10;48.90
11925;DHT22;6022;48.768;18.608;2023-06-01T16:04:56;26.20;48.90
11925;DHT22;6022;48.768;18.608;2023-06-01T16:07:23;25.90;49.30
11925;DHT22;6022;48.768;18.608;2023-06-01T16:09:50;25.80;52.20
11925;DHT22;6022;48.768;18.608;2023-06-01T16:12:22;25.60;51.30
11925;DHT22;6022;48.768;18.608;2023-06-01T16:14:49;25.90;50.80
11925;DHT22;6022;48.768;18.608;2023-06-01T16:17:17;25.70;49.20
11925;DHT22;6022;48.768;18.608;2023-06-01T16:19:44;25.50;49.40
11925;DHT22;6022;48.768;18.608;2023-06-01T16:22:12;25.60;50.20
11925;DHT22;6022;48.768;18.608;2023-06-01T16:24:39;25.70;52.50
11925;DHT22;6022;48.768;18.608;2023-06-01T16:27:10;25.50;50.50
11925;DHT22;6022;48.768;18.608;2023-06-01T16:29:37;25.50;51.30
11925;DHT22;6022;48.768;18.608;2023-06-01T16:32:04;25.30;51.80
11925;DHT22;6022;48.768;18.608;2023-06-01T16:34:32;25.50;52.60
11925;DHT22;6022;48.768;18.608;2023-06-01T16:36:59;25.40;51.30
11925;DHT22;6022;48.768;18.608;2023-06-01T16:39:27;25.20;50.80
11925;DHT22;6022;48.768;18.608;2023-06-01T16:41:54;25.30;50.30
11925;DHT22;6022;48.768;18.608;2023-06-01T16:44:24;25.20;52.70
11925;DHT22;6022;48.768;18.608;2023-06-01T16:46:52;25.60;53.50
11925;DHT22;6022;48.768;18.608;2023-06-01T16:49:21;25.10;55.70
11925;DHT22;6022;48.768;18.608;2023-06-01T16:51:49;24.90;55.30
11925;DHT22;6022;48.768;18.608;2023-06-01T16:54:16;24.90;54.20
11925;DHT22;6022;48.768;18.608;2023-06-01T16:56:43;25.00;55.40
11925;DHT22;6022;48.768;18.608;2023-06-01T16:59:14;25.30;53.70
11925;DHT22;6022;48.768;18.608;2023-06-01T17:01:41;25.00;54.20
11925;DHT22;6022;48.768;18.608;2023-06-01T17:04:09;24.90;55.30
11925;DHT22;6022;48.768;18.608;2023-06-01T17:06:39;25.00;56.60
11925;DHT22;6022;48.768;18.608;2023-06-01T17:09:07;24.90;59.20
11925;DHT22;6022;48.768;18.608;2023-06-01T17:11:35;24.80;60.00
11925;DHT22;6022;48.768;18.608;2023-06-01T17:14:02;24.80;61.60
11925;DHT22;6022;48.768;18.608;2023-06-01T17:16:29;24.60;60.30
11925;DHT22;6022;48.768;18.608;2023-06-01T17:19:00;24.70;61.10
11925;DHT22;6022;48.768;18.608;2023-06-01T17:21:28;24.70;61.30
11925;DHT22;6022;48.768;18.608;2023-06-01T17:23:55;24.60;63.10
11925;DHT22;6022;48.768;18.608;2023-06-01T17:26:22;24.60;64.50
11925;DHT22;6022;48.768;18.608;2023-06-01T17:28:50;24.50;65.60
11925;DHT22;6022;48.768;18.608;2023-06-01T17:31:17;24.40;66.90
11925;DHT22;6022;48.768;18.608;2023-06-01T17:33:44;24.40;66.20
11925;DHT22;6022;48.768;18.608;2023-06-01T17:36:11;24.40;67.20
11925;DHT22;6022;48.768;18.608;2023-06-01T17:38:42;24.30;69.10
11925;DHT22;6022;48.768;18.608;2023-06-01T17:41:11;24.40;70.00
11925;DHT22;6022;48.768;18.608;2023-06-01T17:43:38;24.10;70.60
11925;DHT22;6022;48.768;18.608;2023-06-01T17:46:06;24.10;71.90
11925;DHT22;6022;48.768;18.608;2023-06-01T17:48:35;23.90;73.20
11925;DHT22;6022;48.768;18.608;2023-06-01T17:51:02;23.80;75.80
11925;DHT22;6022;48.768;18.608;2023-06-01T17:53:30;23.80;77.50
11925;DHT22;6022;48.768;18.608;2023-06-01T17:56:07;23.80;79.50
11925;DHT22;6022;48.768;18.608;2023-06-01T17:58:37;23.80;80.40